Wednesday, October 18, 2017, 3:42 AM EDT
Back to Local

KPVC, Provincetown, Provincetown Municipal Airport

Location: Provincetown, MA, United States Lat: 42.067
Local Time: 3:42 AM EDT ( 7:42 GMT) Lon: -70.217
Time Zone: US/Eastern Elev: 6 ft

Show me the last for .
Show Decoded

2017-10-18 02:56 METAR KPVC 180656Z AUTO 24016KT 10SM CLR 12/07 A3022 RMK AO2 SLP233 T01170067 =
2017-10-18 01:56 METAR KPVC 180556Z AUTO 24014KT 10SM CLR 11/06 A3024 RMK AO2 SLP240 T01110056
                 10111 20100 56008 =
2017-10-18 00:56 METAR KPVC 180456Z AUTO 24014G20KT 10SM CLR 11/06 A3025 RMK AO2 SLP243 T01110056
                 401170078 =
2017-10-17 23:56 METAR KPVC 180356Z AUTO 24015KT 10SM CLR 11/06 A3025 RMK AO2 SLP243 T01110056 =
2017-10-17 22:56 METAR KPVC 180256Z AUTO 24015G21KT 10SM CLR 11/05 A3026 RMK AO2 SLP248 T01060050
                 50005 =
2017-10-17 21:56 METAR KPVC 180156Z AUTO 24014KT 10SM CLR 11/04 A3027 RMK AO2 SLP248 T01060044 =
2017-10-17 20:56 METAR KPVC 180056Z AUTO 24012KT 10SM CLR 11/04 A3026 RMK AO2 SLP246 T01060044 =
2017-10-17 19:56 METAR KPVC 172356Z AUTO 21011KT 10SM CLR 11/04 A3025 RMK AO2 SLP243 T01060039
                 10117 20078 53004 =
2017-10-17 18:56 METAR KPVC 172256Z AUTO 20009KT 10SM CLR 09/04 A3025 RMK AO2 SLP244 T00940039 =
2017-10-17 17:56 METAR KPVC 172156Z AUTO 19006KT 10SM CLR 08/03 A3023 RMK AO2 SLP238 T00830028 =
2017-10-17 16:56 METAR KPVC 172056Z AUTO 20004KT 10SM CLR 11/02 A3024 RMK AO2 SLP240 T01060017
                 57007 =
2017-10-17 15:56 METAR KPVC 171956Z AUTO 00000KT 10SM CLR 11/00 A3025 RMK AO2 SLP241 T01110000 =
2017-10-17 14:56 METAR KPVC 171856Z AUTO 29005KT 10SM CLR 11/02 A3026 RMK AO2 SLP245 T01110017 =
2017-10-17 13:56 METAR KPVC 171756Z AUTO 31007KT 10SM CLR 12/02 A3026 RMK AO2 SLP247 T01170022
                 10117 20089 58006 =
2017-10-17 12:56 METAR KPVC 171656Z AUTO 36006KT 10SM CLR 12/02 A3027 RMK AO2 SLP251 T01170017 =
2017-10-17 11:56 METAR KPVC 171556Z AUTO 36006KT 10SM CLR 12/02 A3028 RMK AO2 SLP253 T01170017 =
2017-10-17 10:56 METAR KPVC 171456Z AUTO 36009KT 10SM CLR 12/02 A3028 RMK AO2 SLP253 T01170017
                 50008 =
2017-10-17 09:56 METAR KPVC 171356Z AUTO 01011KT 10SM FEW045 11/01 A3028 RMK AO2 SLP253 T01110006
                 =
2017-10-17 08:56 METAR KPVC 171256Z AUTO 02012KT 10SM SCT043 11/01 A3027 RMK AO2 SLP251 T01060006
                 =
2017-10-17 07:56 METAR KPVC 171156Z AUTO 01013KT 10SM SCT046 09/00 A3025 RMK AO2 SLP245 T00890000
                 10100 20089 53022 =
2017-10-17 06:56 METAR KPVC 171056Z AUTO 02010G20KT 10SM BKN046 09/00 A3023 RMK AO2 SLP235
                 T00890000 =
2017-10-17 05:56 METAR KPVC 170956Z AUTO 36017G24KT 10SM BKN048 09/00 A3021 RMK AO2 SLP230
                 T00890000 =
2017-10-17 04:56 METAR KPVC 170856Z AUTO 02016G25KT 10SM BKN048 09/01 A3019 RMK AO2 SLP223
                 T00940011 53018 =
2017-10-17 03:56 METAR KPVC 170756Z AUTO 01015G25KT 10SM OVC043 09/02 A3017 RMK AO2 SLP214
                 T00940017 =

Support USWX by starting your Amazon purchase here.